createdAt,value
2019-06-10T00:02:32.448Z,99.90
2019-06-10T00:05:07.957Z,99.90
2019-06-10T00:07:43.172Z,99.90
2019-06-10T00:10:21.326Z,99.90
2019-06-10T00:12:57.667Z,99.90
2019-06-10T00:15:32.889Z,99.90
2019-06-10T00:18:30.861Z,99.90
2019-06-10T00:20:45.127Z,99.90
2019-06-10T00:23:21.230Z,99.90
2019-06-10T00:25:57.908Z,99.90
2019-06-10T00:28:33.338Z,99.90
2019-06-10T00:31:08.691Z,99.90
2019-06-10T00:33:43.862Z,99.90
2019-06-10T00:36:21.380Z,99.90
2019-06-10T00:38:55.918Z,99.90
2019-06-10T00:41:31.461Z,99.90
2019-06-10T00:44:07.231Z,99.90
2019-06-10T00:46:43.447Z,99.90
2019-06-10T00:49:21.110Z,99.90
2019-06-10T00:51:55.833Z,99.90
2019-06-10T00:54:31.313Z,99.90
2019-06-10T00:57:07.356Z,99.90
2019-06-10T00:59:42.659Z,99.90
2019-06-10T01:02:18.085Z,99.90
2019-06-10T01:04:53.320Z,99.90
2019-06-10T01:07:30.970Z,99.90
2019-06-10T01:10:08.918Z,99.90
2019-06-10T01:12:45.310Z,99.90
2019-06-10T01:15:21.826Z,99.90
2019-06-10T01:17:57.059Z,99.90
2019-06-10T01:20:32.549Z,99.90
2019-06-10T01:23:07.686Z,99.90
2019-06-10T01:25:42.831Z,99.90
2019-06-10T01:28:18.604Z,99.90
2019-06-10T01:30:53.816Z,99.90
2019-06-10T01:33:28.954Z,99.90
2019-06-10T01:36:04.274Z,99.90
2019-06-10T01:38:41.039Z,99.90
2019-06-10T01:41:16.678Z,99.90
2019-06-10T01:43:51.935Z,99.90
2019-06-10T01:46:27.171Z,99.90
2019-06-10T01:49:02.366Z,99.90
2019-06-10T01:51:37.895Z,99.90
2019-06-10T01:54:15.569Z,99.90
2019-06-10T01:56:51.360Z,99.90
2019-06-10T01:59:26.566Z,99.90
2019-06-10T02:02:11.625Z,99.90
2019-06-10T02:04:46.192Z,99.90
2019-06-10T02:07:23.118Z,99.90
2019-06-10T02:10:00.964Z,99.90
2019-06-10T02:12:35.528Z,99.90
2019-06-10T02:15:12.543Z,99.90
2019-06-10T02:17:47.986Z,99.90
2019-06-10T02:20:23.974Z,99.90
2019-06-10T02:23:01.893Z,99.90
2019-06-10T02:25:36.525Z,99.90
2019-06-10T02:28:13.425Z,99.90
2019-06-10T02:30:51.790Z,99.90
2019-06-10T02:33:30.623Z,99.90
2019-06-10T02:36:04.112Z,99.90
2019-06-10T02:38:39.952Z,99.90
2019-06-10T02:41:18.623Z,99.90
2019-06-10T02:43:53.352Z,99.90
2019-06-10T02:46:31.329Z,99.90
2019-06-10T02:49:20.890Z,99.90
2019-06-10T02:51:44.022Z,99.90
2019-06-10T02:54:20.891Z,99.90
2019-06-10T02:56:56.309Z,99.90
2019-06-10T02:59:35.929Z,99.90
2019-06-10T03:02:08.373Z,99.90
2019-06-10T03:04:43.629Z,99.90
2019-06-10T03:07:21.128Z,99.90
2019-06-10T03:09:56.209Z,99.90
2019-06-10T03:12:33.120Z,99.90
2019-06-10T03:15:08.923Z,99.90
2019-06-10T03:17:45.034Z,99.90
2019-06-10T03:20:23.064Z,99.90
2019-06-10T03:22:57.432Z,99.90
2019-06-10T03:25:32.848Z,99.90
2019-06-10T03:28:08.112Z,99.90
2019-06-10T03:30:53.448Z,99.90
2019-06-10T03:33:23.511Z,99.90
2019-06-10T03:35:57.220Z,99.90
2019-06-10T03:38:32.723Z,99.90
2019-06-10T03:41:08.185Z,99.90
2019-06-10T03:43:43.393Z,99.90
2019-06-10T03:46:19.036Z,99.90
2019-06-10T03:48:55.226Z,99.90
2019-06-10T03:51:33.158Z,99.90
2019-06-10T03:54:07.437Z,99.90
2019-06-10T03:56:43.105Z,99.90
2019-06-10T03:59:19.236Z,99.90
2019-06-10T04:01:54.505Z,99.90
2019-06-10T04:04:29.846Z,99.90
2019-06-10T04:07:05.343Z,99.90
2019-06-10T04:09:42.401Z,99.90
2019-06-10T04:12:17.546Z,99.90
2019-06-10T04:14:52.746Z,99.90
2019-06-10T04:17:28.699Z,99.90
2019-06-10T04:20:11.512Z,99.90
2019-06-10T04:22:44.320Z,99.90
2019-06-10T04:25:19.841Z,99.90
2019-06-10T04:27:55.084Z,99.90
2019-06-10T04:30:32.357Z,99.90
2019-06-10T04:33:07.203Z,99.90
2019-06-10T04:35:42.842Z,99.90
2019-06-10T04:38:18.348Z,99.90
2019-06-10T04:40:53.492Z,99.90
2019-06-10T04:43:28.906Z,99.90
2019-06-10T04:46:04.233Z,99.90
2019-06-10T04:48:39.496Z,99.90
2019-06-10T04:51:14.703Z,99.90
2019-06-10T04:53:52.221Z,99.90
2019-06-10T04:56:27.808Z,99.90
2019-06-10T04:59:03.716Z,99.90
2019-06-10T05:01:38.998Z,99.90
2019-06-10T05:04:14.343Z,99.90
2019-06-10T05:06:49.634Z,99.90
2019-06-10T05:09:27.623Z,99.90
2019-06-10T05:12:02.841Z,99.90
2019-06-10T05:14:38.183Z,99.90
2019-06-10T05:17:13.389Z,99.90
2019-06-10T05:19:48.575Z,99.90
2019-06-10T05:22:28.157Z,99.90
2019-06-10T05:25:03.648Z,99.90
2019-06-10T05:27:39.008Z,99.90
2019-06-10T05:30:14.636Z,99.90
2019-06-10T05:32:52.263Z,99.90
2019-06-10T05:35:28.099Z,99.90
2019-06-10T05:38:03.760Z,99.90
2019-06-10T05:40:39.077Z,99.90
2019-06-10T05:43:14.300Z,99.90
2019-06-10T05:45:49.611Z,99.90
2019-06-10T05:48:25.604Z,99.90
2019-06-10T05:51:06.243Z,99.90
2019-06-10T05:53:38.656Z,99.90
2019-06-10T05:56:13.871Z,99.90
2019-06-10T05:58:49.140Z,99.90
2019-06-10T06:01:25.620Z,99.90
2019-06-10T06:04:03.088Z,99.90
2019-06-10T06:06:37.978Z,99.90
2019-06-10T06:09:13.347Z,99.90
2019-06-10T06:11:48.665Z,99.90
2019-06-10T06:14:25.262Z,99.90
2019-06-10T06:17:02.206Z,99.90
2019-06-10T06:19:38.888Z,99.90
2019-06-10T06:22:14.286Z,99.90
2019-06-10T06:24:49.480Z,99.90
2019-06-10T06:27:24.785Z,99.90
2019-06-10T06:30:00.013Z,99.90
2019-06-10T06:32:36.915Z,99.90
2019-06-10T06:35:12.664Z,99.90
2019-06-10T06:37:47.923Z,99.90
2019-06-10T06:40:23.206Z,99.90
2019-06-10T06:42:58.501Z,99.90
2019-06-10T06:45:35.945Z,99.90
2019-06-10T06:48:12.306Z,99.90
2019-06-10T06:51:02.043Z,99.90
2019-06-10T06:53:33.155Z,99.90
2019-06-10T06:56:03.663Z,99.90
2019-06-10T06:58:40.211Z,99.90
2019-06-10T07:01:16.853Z,99.90
2019-06-10T07:03:53.661Z,99.90
2019-06-10T07:06:33.802Z,99.90
2019-06-10T07:09:08.321Z,99.90
2019-06-10T07:11:45.274Z,99.90
2019-06-10T07:14:23.799Z,99.90
2019-06-10T07:16:59.126Z,99.90
2019-06-10T07:19:36.597Z,99.90
2019-06-10T07:22:15.275Z,99.90
2019-06-10T07:24:48.209Z,99.90
2019-06-10T07:27:23.422Z,99.90
2019-06-10T07:29:58.732Z,99.90
2019-06-10T07:32:35.712Z,99.90
2019-06-10T07:35:13.028Z,99.90
2019-06-10T07:37:49.362Z,99.90
2019-06-10T07:40:24.619Z,99.90
2019-06-10T07:43:02.230Z,99.90
2019-06-10T07:45:38.980Z,99.90
2019-06-10T07:48:13.669Z,99.90
2019-06-10T07:50:48.973Z,99.90
2019-06-10T07:53:24.273Z,99.90
2019-06-10T07:55:59.515Z,99.90
2019-06-10T07:58:36.774Z,99.90
2019-06-10T08:01:13.141Z,99.90
2019-06-10T08:03:48.961Z,99.90
2019-06-10T08:06:24.225Z,99.90
2019-06-10T08:09:07.793Z,99.90
2019-06-10T08:11:48.293Z,99.90
2019-06-10T08:14:24.989Z,99.90
2019-06-10T08:17:02.969Z,99.90
2019-06-10T08:19:40.412Z,99.90
2019-06-10T08:22:29.967Z,99.90
2019-06-10T08:24:52.374Z,99.90
2019-06-10T08:27:27.865Z,99.90
2019-06-10T08:30:17.632Z,99.90
2019-06-10T08:32:43.394Z,99.90
2019-06-10T08:35:17.044Z,99.90
2019-06-10T08:37:52.936Z,99.90
2019-06-10T08:40:28.347Z,99.90
2019-06-10T08:43:04.959Z,99.90
2019-06-10T08:45:43.318Z,99.90
2019-06-10T08:48:17.430Z,99.90
2019-06-10T08:50:53.444Z,99.90
2019-06-10T08:53:28.688Z,99.90
2019-06-10T08:56:03.943Z,99.90
2019-06-10T08:58:40.896Z,99.90
2019-06-10T09:01:16.106Z,99.90
2019-06-10T09:03:53.668Z,99.90
2019-06-10T09:06:28.233Z,99.90
2019-06-10T09:09:05.687Z,99.90
2019-06-10T09:11:45.686Z,99.90
2019-06-10T09:14:17.897Z,99.90
2019-06-10T09:16:54.390Z,98.90
2019-06-10T09:19:33.052Z,98.80
2019-06-10T09:22:07.620Z,98.50
2019-06-10T09:24:49.396Z,99.50
2019-06-10T09:27:26.707Z,99.30
2019-06-10T09:29:59.958Z,98.70
2019-06-10T09:32:35.163Z,99.90
2019-06-10T09:35:12.620Z,99.20
2019-06-10T09:37:51.115Z,99.70
2019-06-10T09:40:47.510Z,98.50
2019-06-10T09:43:22.545Z,98.30
2019-06-10T09:45:58.209Z,97.70
2019-06-10T09:48:33.929Z,98.20
2019-06-10T09:51:09.293Z,99.50
2019-06-10T09:53:54.646Z,99.90
2019-06-10T09:56:23.418Z,99.90
2019-06-10T09:58:59.957Z,99.90
2019-06-10T10:01:35.292Z,99.90
2019-06-10T10:04:12.391Z,99.90
2019-06-10T10:06:50.199Z,99.90
2019-06-10T10:09:24.404Z,99.90
2019-06-10T10:11:59.696Z,99.90
2019-06-10T10:14:34.902Z,99.00
2019-06-10T10:17:12.706Z,98.50
2019-06-10T10:19:49.663Z,96.40
2019-06-10T10:22:24.364Z,96.70
2019-06-10T10:24:59.529Z,97.50
2019-06-10T10:27:35.493Z,97.20
2019-06-10T10:30:13.379Z,97.50
2019-06-10T10:32:50.495Z,99.50
2019-06-10T10:35:25.089Z,98.20
2019-06-10T10:38:03.702Z,96.80
2019-06-10T10:40:38.744Z,97.90
2019-06-10T10:43:25.436Z,97.70
2019-06-10T10:45:54.276Z,95.00
2019-06-10T10:48:27.850Z,95.40
2019-06-10T10:51:03.808Z,94.70
2019-06-10T10:53:39.119Z,93.70
2019-06-10T10:56:14.323Z,94.00
2019-06-10T10:58:52.026Z,94.60
2019-06-10T11:01:26.488Z,94.40
2019-06-10T11:04:03.687Z,92.90
2019-06-10T11:06:38.645Z,93.30
2019-06-10T11:09:15.482Z,95.60
2019-06-10T11:11:53.357Z,92.40
2019-06-10T11:14:28.079Z,92.00
2019-06-10T11:17:03.391Z,93.70
2019-06-10T11:19:38.822Z,93.70
2019-06-10T11:22:14.034Z,92.20
2019-06-10T11:24:49.368Z,94.80
2019-06-10T11:27:24.558Z,91.80
2019-06-10T11:30:02.304Z,92.10
2019-06-10T11:32:36.738Z,90.40
2019-06-10T11:35:12.236Z,92.60
2019-06-10T11:37:47.451Z,91.40
2019-06-10T11:40:22.603Z,87.00
2019-06-10T11:42:59.832Z,89.70
2019-06-10T11:45:35.172Z,88.20
2019-06-10T11:48:12.817Z,91.20
2019-06-10T11:50:47.349Z,88.50
2019-06-10T11:53:23.000Z,89.90
2019-06-10T11:55:58.382Z,90.80
2019-06-10T11:58:33.681Z,91.10
2019-06-10T12:01:08.986Z,90.20
2019-06-10T12:03:44.300Z,91.90
2019-06-10T12:06:19.657Z,90.40
2019-06-10T12:08:58.324Z,89.90
2019-06-10T12:11:34.275Z,89.20
2019-06-10T12:14:08.684Z,92.00
2019-06-10T12:17:17.712Z,95.00
2019-06-10T12:19:21.329Z,94.30
2019-06-10T12:22:02.419Z,94.20
2019-06-10T12:24:35.709Z,92.80
2019-06-10T12:27:12.979Z,95.00
2019-06-10T12:29:47.902Z,98.10
2019-06-10T12:32:23.211Z,99.90
2019-06-10T12:34:59.751Z,99.90
2019-06-10T12:37:35.137Z,99.90
2019-06-10T12:40:12.772Z,99.90
2019-06-10T12:42:48.225Z,99.90
2019-06-10T12:45:24.835Z,99.90
2019-06-10T12:48:04.491Z,99.90
2019-06-10T12:50:37.154Z,99.90
2019-06-10T12:53:12.646Z,99.90
2019-06-10T12:55:47.847Z,99.90
2019-06-10T12:58:24.020Z,99.90
2019-06-10T13:00:59.445Z,99.90
2019-06-10T13:03:34.648Z,99.90
2019-06-10T13:06:12.724Z,99.90
2019-06-10T13:08:48.410Z,99.90
2019-06-10T13:11:23.722Z,99.90
2019-06-10T13:13:59.963Z,99.90
2019-06-10T13:16:35.789Z,99.90
2019-06-10T13:19:12.583Z,99.90
2019-06-10T13:21:48.072Z,99.90
2019-06-10T13:24:23.349Z,99.90
2019-06-10T13:26:58.788Z,99.90
2019-06-10T13:29:37.002Z,99.90
2019-06-10T13:32:12.196Z,99.90
2019-06-10T13:34:48.404Z,99.90
2019-06-10T13:37:23.523Z,99.90
2019-06-10T13:39:59.458Z,99.90
2019-06-10T13:42:36.885Z,99.90
2019-06-10T13:45:12.702Z,99.90
2019-06-10T13:47:48.025Z,99.90
2019-06-10T13:50:25.096Z,99.90
2019-06-10T13:53:03.775Z,99.90
2019-06-10T13:55:42.209Z,99.90
2019-06-10T13:58:17.427Z,99.90
2019-06-10T14:00:53.639Z,99.90
2019-06-10T14:03:29.433Z,99.90
2019-06-10T14:06:23.832Z,99.90
2019-06-10T14:08:43.223Z,99.90
2019-06-10T14:11:19.611Z,99.90
2019-06-10T14:13:56.025Z,99.90
2019-06-10T14:16:33.240Z,99.90
2019-06-10T14:19:11.386Z,99.90
2019-06-10T14:21:46.232Z,99.90
2019-06-10T14:24:22.785Z,99.90
2019-06-10T14:26:58.207Z,99.90
2019-06-10T14:29:33.502Z,99.90
2019-06-10T14:32:09.238Z,99.90
2019-06-10T14:34:44.568Z,99.90
2019-06-10T14:37:35.083Z,99.90
2019-06-10T14:39:57.090Z,99.90
2019-06-10T14:42:32.450Z,99.90
2019-06-10T14:45:08.821Z,99.90
2019-06-10T14:47:44.175Z,99.90
2019-06-10T14:50:19.598Z,99.90
2019-06-10T14:52:54.975Z,99.90
2019-06-10T14:55:30.451Z,99.90
2019-06-10T14:58:05.890Z,99.90
2019-06-10T15:00:45.371Z,99.90
2019-06-10T15:03:20.008Z,99.90
2019-06-10T15:05:55.355Z,99.90
2019-06-10T15:08:32.264Z,99.90
2019-06-10T15:11:07.969Z,99.90
2019-06-10T15:13:43.546Z,99.90
2019-06-10T15:16:23.800Z,99.90
2019-06-10T15:19:11.911Z,99.90
2019-06-10T15:21:35.913Z,99.90
2019-06-10T15:24:11.965Z,99.90
2019-06-10T15:26:48.363Z,99.90
2019-06-10T15:29:23.629Z,99.90
2019-06-10T15:32:10.627Z,99.90
2019-06-10T15:34:35.943Z,99.90
2019-06-10T15:37:14.224Z,99.90
2019-06-10T15:39:49.241Z,99.90
2019-06-10T15:42:25.458Z,99.90
2019-06-10T15:45:02.503Z,99.90
2019-06-10T15:47:38.864Z,99.90
2019-06-10T15:50:15.825Z,99.90
2019-06-10T15:52:52.401Z,99.90
2019-06-10T15:55:55.432Z,99.90
2019-06-10T15:58:05.958Z,99.90
2019-06-10T16:00:42.653Z,99.90
2019-06-10T16:03:19.300Z,99.90
2019-06-10T16:05:55.150Z,99.90
2019-06-10T16:08:32.484Z,99.90
2019-06-10T16:11:07.378Z,99.90
2019-06-10T16:13:43.117Z,99.90
2019-06-10T16:16:18.949Z,99.90
2019-06-10T16:18:54.285Z,99.90
2019-06-10T16:21:29.541Z,99.90
2019-06-10T16:24:04.865Z,99.90
2019-06-10T16:26:40.140Z,99.90
2019-06-10T16:29:15.519Z,99.90
2019-06-10T16:31:52.868Z,99.90
2019-06-10T16:34:29.113Z,99.90
2019-06-10T16:37:04.467Z,99.90
2019-06-10T16:39:39.774Z,99.90
2019-06-10T16:42:15.490Z,99.90
2019-06-10T16:44:52.730Z,99.90
2019-06-10T16:47:27.744Z,99.90
2019-06-10T16:50:03.393Z,99.90
2019-06-10T16:52:38.772Z,99.90
2019-06-10T16:55:14.292Z,99.90
2019-06-10T16:57:58.929Z,99.90
2019-06-10T17:00:27.789Z,99.90
2019-06-10T17:03:03.140Z,99.90
2019-06-10T17:05:38.463Z,99.90
2019-06-10T17:08:14.014Z,99.90
2019-06-10T17:10:49.340Z,99.90
2019-06-10T17:13:27.193Z,99.90
2019-06-10T17:16:03.568Z,99.90
2019-06-10T17:18:39.041Z,99.90
2019-06-10T17:21:14.278Z,99.90
2019-06-10T17:23:52.270Z,99.90
2019-06-10T17:26:30.652Z,99.90
2019-06-10T17:29:03.476Z,99.90
2019-06-10T17:31:38.645Z,99.90
2019-06-10T17:34:14.048Z,99.90
2019-06-10T17:36:50.315Z,99.90
2019-06-10T17:39:27.039Z,99.90
2019-06-10T17:42:05.631Z,99.90
2019-06-10T17:44:42.880Z,99.90
2019-06-10T17:47:17.830Z,99.90
2019-06-10T17:49:54.834Z,99.90
2019-06-10T17:52:32.773Z,99.90
2019-06-10T17:55:08.075Z,99.90
2019-06-10T17:57:43.404Z,99.90
2019-06-10T18:00:19.349Z,99.90
2019-06-10T18:02:54.970Z,99.90
2019-06-10T18:05:31.348Z,99.90
2019-06-10T18:08:06.769Z,99.90
2019-06-10T18:10:43.446Z,99.90
2019-06-10T18:13:22.500Z,99.90
2019-06-10T18:15:57.089Z,99.90
2019-06-10T18:18:35.602Z,99.90
2019-06-10T18:21:09.345Z,99.90
2019-06-10T18:23:44.645Z,99.90
2019-06-10T18:26:19.903Z,99.90
2019-06-10T18:29:02.005Z,99.90
2019-06-10T18:31:33.942Z,99.90
2019-06-10T18:34:08.906Z,99.90
2019-06-10T18:36:44.153Z,99.90
2019-06-10T18:39:19.540Z,99.90
2019-06-10T18:41:54.929Z,99.90
2019-06-10T18:44:32.689Z,99.90
2019-06-10T18:47:07.184Z,99.90
2019-06-10T18:49:43.406Z,99.90
2019-06-10T18:52:23.337Z,99.90
2019-06-10T18:54:58.784Z,99.90
2019-06-10T18:57:36.147Z,99.90
2019-06-10T19:00:14.517Z,99.90
2019-06-10T19:02:49.008Z,99.90
2019-06-10T19:05:24.338Z,99.90
2019-06-10T19:08:02.294Z,99.90
2019-06-10T19:10:37.449Z,99.90
2019-06-10T19:13:13.479Z,99.90
2019-06-10T19:15:48.746Z,99.90
2019-06-10T19:18:24.294Z,99.90
2019-06-10T19:20:59.544Z,99.90
2019-06-10T19:23:36.611Z,99.90
2019-06-10T19:26:13.379Z,99.90
2019-06-10T19:28:48.573Z,99.90
2019-06-10T19:31:23.868Z,99.90
2019-06-10T19:33:59.301Z,99.90
2019-06-10T19:36:35.518Z,99.90
2019-06-10T19:39:13.144Z,99.90
2019-06-10T19:41:48.034Z,99.90
2019-06-10T19:44:23.571Z,99.90
2019-06-10T19:46:58.841Z,99.90
2019-06-10T19:49:35.320Z,99.90
2019-06-10T19:52:12.059Z,99.90
2019-06-10T19:54:47.420Z,99.90
2019-06-10T19:57:22.588Z,99.90
2019-06-10T20:00:10.607Z,99.90
2019-06-10T20:02:35.799Z,99.90
2019-06-10T20:05:12.488Z,99.90
2019-06-10T20:07:50.377Z,99.90
2019-06-10T20:10:24.774Z,99.90
2019-06-10T20:13:00.013Z,99.90
2019-06-10T20:15:35.488Z,99.90
2019-06-10T20:18:12.264Z,99.90
2019-06-10T20:20:49.039Z,99.90
2019-06-10T20:23:27.118Z,99.90
2019-06-10T20:26:03.106Z,99.90
2019-06-10T20:28:38.661Z,99.90
2019-06-10T20:31:14.570Z,99.90
2019-06-10T20:33:52.197Z,99.90
2019-06-10T20:36:27.329Z,99.90
2019-06-10T20:39:02.869Z,99.90
2019-06-10T20:41:43.689Z,99.90
2019-06-10T20:44:16.817Z,99.90
2019-06-10T20:46:52.857Z,99.90
2019-06-10T20:49:28.320Z,99.90
2019-06-10T20:52:10.765Z,99.90
2019-06-10T20:54:42.953Z,99.90
2019-06-10T20:57:17.490Z,99.90
2019-06-10T20:59:52.773Z,99.90
2019-06-10T21:02:28.698Z,99.90
2019-06-10T21:05:04.189Z,99.90
2019-06-10T21:07:39.602Z,99.90
2019-06-10T21:10:17.725Z,99.90
2019-06-10T21:12:53.218Z,99.90
2019-06-10T21:15:28.563Z,99.90
2019-06-10T21:18:04.412Z,99.90
2019-06-10T21:20:41.308Z,99.90
2019-06-10T21:23:16.602Z,99.90
2019-06-10T21:25:52.521Z,99.90
2019-06-10T21:28:27.803Z,99.90
2019-06-10T21:31:03.181Z,99.90
2019-06-10T21:33:39.491Z,99.90
2019-06-10T21:36:14.806Z,99.90
2019-06-10T21:38:51.843Z,99.90
2019-06-10T21:41:26.988Z,99.90
2019-06-10T21:44:03.072Z,99.90
2019-06-10T21:46:38.683Z,99.90
2019-06-10T21:49:14.074Z,99.90
2019-06-10T21:51:51.182Z,99.90
2019-06-10T21:54:26.301Z,99.90
2019-06-10T21:57:02.631Z,99.90
2019-06-10T21:59:37.974Z,99.90
2019-06-10T22:02:13.408Z,99.90
2019-06-10T22:04:49.438Z,99.90
2019-06-10T22:07:24.748Z,99.90
2019-06-10T22:10:02.352Z,99.90
2019-06-10T22:12:37.092Z,99.90
2019-06-10T22:15:12.697Z,99.90
2019-06-10T22:17:48.351Z,99.90
2019-06-10T22:20:23.646Z,99.90
2019-06-10T22:22:58.901Z,99.90
2019-06-10T22:25:34.152Z,99.90
2019-06-10T22:28:09.355Z,99.90
2019-06-10T22:30:45.146Z,99.90
2019-06-10T22:33:22.529Z,99.90
2019-06-10T22:35:58.325Z,99.90
2019-06-10T22:38:33.556Z,99.90
2019-06-10T22:41:08.858Z,99.90
2019-06-10T22:43:44.337Z,99.90
2019-06-10T22:46:19.641Z,99.90
2019-06-10T22:48:55.279Z,99.90
2019-06-10T22:51:32.898Z,99.90
2019-06-10T22:54:08.569Z,99.90
2019-06-10T22:56:43.831Z,99.90
2019-06-10T22:59:19.056Z,99.90
2019-06-10T23:01:56.284Z,99.90
2019-06-10T23:04:33.154Z,99.90
2019-06-10T23:07:08.152Z,99.90
2019-06-10T23:09:43.462Z,99.90
2019-06-10T23:12:18.856Z,99.90
2019-06-10T23:14:56.247Z,99.90
2019-06-10T23:17:30.982Z,99.90
2019-06-10T23:20:06.387Z,99.90
2019-06-10T23:22:42.615Z,99.90
2019-06-10T23:25:18.211Z,99.90
2019-06-10T23:27:56.322Z,99.90
2019-06-10T23:30:32.840Z,99.90
2019-06-10T23:33:07.302Z,99.90
2019-06-10T23:35:43.191Z,99.90
2019-06-10T23:38:18.478Z,99.90
2019-06-10T23:40:54.760Z,99.90
2019-06-10T23:43:30.106Z,99.90
2019-06-10T23:46:05.506Z,99.90
2019-06-10T23:48:42.429Z,99.90
2019-06-10T23:51:17.765Z,99.90
2019-06-10T23:53:58.100Z,99.90
2019-06-10T23:56:32.597Z,99.90
2019-06-10T23:59:08.007Z,99.90
